Time;durP1;ratioP1;P1;durP2;ratioP2;P2;SDS_P1;SDS_P2;PMS_P1;PMS_P2;Temp;Humidity;BMP_temperature;BMP_pressure;BME280_temperature;BME280_humidity;BME280_pressure;Samples;Min_cycle;Max_cycle;Signal;HPM_P1;HPM_P2
2024/01/26 00:02:14;;;;;;;20.47;3.27;;;;;;;3.15;100.00;102141.00;5029270;28;20383;-68
2024/01/26 00:04:39;;;;;;;15.90;3.83;;;;;;;3.09;99.82;102140.41;5045616;28;20083;-66
2024/01/26 00:07:05;;;;;;;22.43;3.60;;;;;;;3.06;100.00;102143.63;5045497;28;20112;-66
2024/01/26 00:09:31;;;;;;;13.73;4.00;;;;;;;3.03;100.00;102138.16;5044324;28;20867;-70
2024/01/26 00:11:57;;;;;;;21.40;3.37;;;;;;;3.01;100.00;102142.28;5046240;28;20055;-70
2024/01/26 00:14:22;;;;;;;20.55;3.97;;;;;;;2.96;100.00;102146.19;5045379;28;20045;-69
2024/01/26 00:16:47;;;;;;;15.43;2.87;;;;;;;2.95;100.00;102152.19;5037181;28;20674;-67
2024/01/26 00:19:13;;;;;;;14.83;3.17;;;;;;;2.91;100.00;102153.56;5036884;28;20052;-66
2024/01/26 00:21:38;;;;;;;28.77;3.63;;;;;;;2.86;100.00;102148.72;5045624;28;20471;-71
2024/01/26 00:24:05;;;;;;;16.60;3.30;;;;;;;2.83;100.00;102148.41;5045788;28;20171;-67
2024/01/26 00:26:30;;;;;;;12.00;2.97;;;;;;;2.78;100.00;102145.38;5045500;28;20295;-72
2024/01/26 00:28:55;;;;;;;20.57;4.20;;;;;;;2.74;100.00;102139.75;5039798;28;20103;-70
2024/01/26 00:31:21;;;;;;;19.27;3.17;;;;;;;2.72;100.00;102136.97;5028961;28;20668;-66
2024/01/26 00:33:47;;;;;;;18.63;3.13;;;;;;;2.68;100.00;102134.84;5032984;28;20044;-66
2024/01/26 00:36:13;;;;;;;13.00;2.80;;;;;;;2.66;100.00;102132.91;5033774;28;20443;-71
2024/01/26 00:38:41;;;;;;;19.05;3.67;;;;;;;2.60;100.00;102130.63;5025214;28;20033;-65
2024/01/26 00:41:07;;;;;;;17.70;3.23;;;;;;;2.56;100.00;102129.44;5040267;28;20089;-68
2024/01/26 00:43:33;;;;;;;12.57;2.88;;;;;;;2.53;100.00;102122.97;5044940;28;20037;-68
2024/01/26 00:45:58;;;;;;;12.17;2.53;;;;;;;2.49;100.00;102126.06;5044705;28;20037;-70
2024/01/26 00:48:24;;;;;;;16.30;2.53;;;;;;;2.44;100.00;102114.28;5045091;28;20279;-65
2024/01/26 00:50:50;;;;;;;17.50;2.87;;;;;;;2.39;100.00;102125.97;5036554;28;20512;-69
2024/01/26 00:53:17;;;;;;;15.33;3.00;;;;;;;2.35;100.00;102130.00;5043246;28;20658;-66
2024/01/26 00:55:43;;;;;;;19.17;3.80;;;;;;;2.32;100.00;102131.41;5036558;28;20127;-69
2024/01/26 00:58:08;;;;;;;14.65;4.10;;;;;;;2.28;100.00;102126.63;5045254;28;20208;-63
2024/01/26 01:00:34;;;;;;;15.67;3.30;;;;;;;2.26;100.00;102129.13;5042778;28;20646;-65
2024/01/26 01:02:59;;;;;;;26.40;3.93;;;;;;;2.25;100.00;102137.69;5031262;28;20040;-72
2024/01/26 01:05:25;;;;;;;14.33;3.47;;;;;;;2.23;100.00;102135.69;5044148;28;20409;-66
2024/01/26 01:07:50;;;;;;;15.33;3.27;;;;;;;2.24;100.00;102130.66;5042993;28;20025;-70
2024/01/26 01:10:16;;;;;;;16.53;4.03;;;;;;;2.23;100.00;102131.41;5045180;28;20545;-67
2024/01/26 01:12:42;;;;;;;12.63;3.58;;;;;;;2.23;100.00;102131.41;5044641;28;20036;-68
2024/01/26 01:15:11;;;;;;;20.90;3.80;;;;;;;2.22;100.00;102124.34;5044544;28;20033;-70
2024/01/26 01:17:41;;;;;;;17.77;3.60;;;;;;;2.22;100.00;102118.25;5041994;28;20284;-68
2024/01/26 01:20:11;;;;;;;13.75;3.10;;;;;;;2.20;100.00;102120.69;5033223;28;20059;-63
2024/01/26 01:22:41;;;;;;;19.48;4.05;;;;;;;2.17;100.00;102121.31;5043977;28;20041;-63
2024/01/26 01:25:07;;;;;;;20.20;4.25;;;;;;;2.18;100.00;102112.72;5045838;28;20417;-65
2024/01/26 01:27:35;;;;;;;13.07;3.42;;;;;;;2.16;100.00;102118.59;5047364;28;20117;-68
2024/01/26 01:30:05;;;;;;;20.93;4.73;;;;;;;2.11;100.00;102112.94;5047326;28;20028;-62
2024/01/26 01:32:30;;;;;;;15.82;3.30;;;;;;;2.11;100.00;102117.22;5047182;28;20036;-68
2024/01/26 01:34:56;;;;;;;10.70;2.90;;;;;;;2.10;100.00;102118.91;5027214;28;20045;-64
2024/01/26 01:37:21;;;;;;;14.83;3.43;;;;;;;2.08;100.00;102115.22;5035045;28;20410;-69
2024/01/26 01:39:47;;;;;;;19.33;4.60;;;;;;;2.09;100.00;102116.16;5038935;28;20048;-64
2024/01/26 01:42:16;;;;;;;17.58;4.05;;;;;;;2.07;100.00;102112.50;5046970;28;20499;-68
2024/01/26 01:44:45;;;;;;;17.95;4.05;;;;;;;2.04;100.00;102118.31;5041699;28;20650;-68
2024/01/26 01:47:12;;;;;;;16.23;4.00;;;;;;;2.03;100.00;102107.72;5041813;28;20112;-65
2024/01/26 01:49:38;;;;;;;17.63;3.83;;;;;;;2.04;100.00;102112.19;5040178;28;20044;-67
2024/01/26 01:52:07;;;;;;;11.65;3.63;;;;;;;2.00;100.00;102110.97;5038882;28;20687;-65
2024/01/26 01:54:33;;;;;;;13.75;3.58;;;;;;;2.00;100.00;102107.44;5035074;28;20037;-65
2024/01/26 01:57:02;;;;;;;30.77;3.80;;;;;;;1.97;100.00;102097.66;5029381;28;20033;-67
2024/01/26 01:59:28;;;;;;;15.30;3.57;;;;;;;1.97;100.00;102091.53;5021909;28;20037;-61
2024/01/26 02:01:54;;;;;;;20.83;3.30;;;;;;;1.97;100.00;102096.75;5029061;28;20082;-61
2024/01/26 02:04:19;;;;;;;15.97;4.43;;;;;;;1.97;100.00;102095.06;5035546;28;20040;-64
2024/01/26 02:07:02;;;;;;;16.83;3.78;;;;;;;1.98;100.00;102085.53;5039584;28;20845;-65
2024/01/26 02:09:28;;;;;;;15.90;3.43;;;;;;;1.93;100.00;102077.28;5040155;28;20044;-62
2024/01/26 02:11:53;;;;;;;15.35;3.90;;;;;;;1.94;100.00;102086.00;5037018;28;20040;-69
2024/01/26 02:14:19;;;;;;;21.37;3.70;;;;;;;1.89;100.00;102069.94;5034825;28;20033;-64
2024/01/26 02:16:55;;;;;;;12.38;3.20;;;;;;;1.85;100.00;102066.88;5041723;28;20124;-64
2024/01/26 02:19:21;;;;;;;15.95;3.75;;;;;;;1.83;100.00;102065.81;5043034;28;20037;-68
2024/01/26 02:21:46;;;;;;;16.85;4.00;;;;;;;1.83;100.00;102064.13;5043274;28;20573;-65
2024/01/26 02:24:13;;;;;;;23.17;4.53;;;;;;;1.82;100.00;102066.59;5043260;28;20481;-68
2024/01/26 02:26:39;;;;;;;22.35;3.25;;;;;;;1.88;100.00;102077.59;5042834;28;20067;-68
2024/01/26 02:29:04;;;;;;;15.50;3.38;;;;;;;1.92;100.00;102080.66;5043167;28;20094;-66
2024/01/26 02:31:30;;;;;;;15.73;3.40;;;;;;;1.94;100.00;102070.38;5044264;28;20033;-64
2024/01/26 02:33:55;;;;;;;20.27;3.70;;;;;;;1.98;100.00;102067.28;5033303;28;20037;-69
2024/01/26 02:36:20;;;;;;;10.40;3.03;;;;;;;2.00;100.00;102064.06;5028125;28;20084;-65
2024/01/26 02:38:46;;;;;;;19.40;3.73;;;;;;;1.99;100.00;102050.88;5043231;28;20048;-63
2024/01/26 02:41:11;;;;;;;23.00;3.60;;;;;;;2.02;100.00;102059.03;5044151;28;20084;-69
2024/01/26 02:43:36;;;;;;;24.23;4.30;;;;;;;2.03;100.00;102053.94;5031159;28;20120;-65
2024/01/26 02:46:08;;;;;;;15.97;4.60;;;;;;;2.06;100.00;102053.31;5018691;28;20553;-65
2024/01/26 02:48:34;;;;;;;20.50;3.63;;;;;;;2.05;100.00;102044.59;5022148;28;20326;-62
2024/01/26 02:50:59;;;;;;;27.63;4.27;;;;;;;2.01;100.00;102044.16;5034747;28;20404;-68
2024/01/26 02:53:26;;;;;;;14.90;3.77;;;;;;;2.02;100.00;102051.19;5042701;28;20029;-67
2024/01/26 02:55:51;;;;;;;15.95;3.13;;;;;;;2.00;100.00;102056.25;5042855;28;20041;-68
2024/01/26 02:58:16;;;;;;;16.73;4.17;;;;;;;1.94;100.00;102053.06;5037059;28;20103;-65
2024/01/26 03:03:08;;;;;;;22.25;4.05;;;;;;;1.83;100.00;102058.00;5076589;28;20947;-65
2024/01/26 03:05:33;;;;;;;21.40;4.83;;;;;;;1.78;100.00;102052.34;5062302;28;20051;-66
2024/01/26 03:07:59;;;;;;;18.90;4.03;;;;;;;1.79;100.00;102048.06;5072478;28;20161;-67
2024/01/26 03:10:24;;;;;;;16.40;4.20;;;;;;;1.82;100.00;102050.97;5062706;28;20051;-69
2024/01/26 03:12:49;;;;;;;20.47;3.20;;;;;;;1.83;100.00;102043.28;5060370;28;20123;-67
2024/01/26 03:15:15;;;;;;;19.93;4.60;;;;;;;1.86;100.00;102047.88;5060567;28;20048;-66
2024/01/26 03:17:40;;;;;;;15.70;3.93;;;;;;;1.89;100.00;102043.88;5061750;28;20037;-67
2024/01/26 03:20:08;;;;;;;18.63;4.63;;;;;;;1.89;100.00;102035.16;5060476;28;20063;-66
2024/01/26 03:22:33;;;;;;;23.53;4.70;;;;;;;1.93;100.00;102032.06;5053367;28;20037;-68
2024/01/26 03:25:08;;;;;;;22.75;4.07;;;;;;;1.97;100.00;102029.91;5053899;28;20501;-66
2024/01/26 03:27:34;;;;;;;17.60;4.40;;;;;;;2.01;100.00;102029.44;5060904;28;20106;-65
2024/01/26 03:29:59;;;;;;;21.20;3.90;;;;;;;2.04;100.00;102024.50;5060979;28;20495;-67
2024/01/26 03:32:25;;;;;;;17.60;3.83;;;;;;;2.10;100.00;102021.56;5052484;28;20120;-68
2024/01/26 03:34:50;;;;;;;24.00;4.22;;;;;;;2.14;100.00;102011.56;5049189;28;20048;-63
2024/01/26 03:37:17;;;;;;;22.03;4.03;;;;;;;2.17;100.00;102011.84;5060940;28;20036;-65
2024/01/26 03:39:42;;;;;;;16.00;4.05;;;;;;;2.22;100.00;102012.25;5061918;28;20036;-63
2024/01/26 03:42:10;;;;;;;18.23;4.00;;;;;;;2.24;100.00;102002.00;5052263;28;20699;-64
2024/01/26 03:44:36;;;;;;;12.10;3.25;;;;;;;2.26;100.00;102001.38;5055668;28;20033;-64
2024/01/26 03:47:02;;;;;;;16.13;4.93;;;;;;;2.29;100.00;102000.75;5049331;28;20087;-65
2024/01/26 03:49:27;;;;;;;24.93;5.00;;;;;;;2.29;100.00;102001.66;5051098;28;20076;-68
2024/01/26 03:51:53;;;;;;;28.23;5.67;;;;;;;2.29;100.00;101990.31;5056543;28;20081;-64
2024/01/26 03:54:18;;;;;;;17.03;4.33;;;;;;;2.29;100.00;101982.50;5044553;28;20133;-69
2024/01/26 03:56:44;;;;;;;15.07;3.97;;;;;;;2.26;100.00;101979.59;5052115;28;20291;-65
2024/01/26 03:59:09;;;;;;;17.07;3.80;;;;;;;2.28;100.00;101989.38;5039112;28;20864;-67
2024/01/26 04:01:34;;;;;;;20.80;4.97;;;;;;;2.29;100.00;101990.31;5048607;28;20832;-64
2024/01/26 04:04:00;;;;;;;19.70;4.75;;;;;;;2.33;100.00;101979.38;5053128;28;20064;-69
2024/01/26 04:06:26;;;;;;;25.00;4.53;;;;;;;2.37;100.00;101976.31;5046361;28;20513;-64
2024/01/26 04:08:51;;;;;;;21.15;4.35;;;;;;;2.37;100.00;101969.38;5052875;28;20068;-66
2024/01/26 04:11:16;;;;;;;20.60;5.07;;;;;;;2.38;100.00;101966.00;5059194;28;20401;-62
2024/01/26 04:13:42;;;;;;;18.23;4.70;;;;;;;2.40;100.00;101960.94;5049700;28;20032;-69
2024/01/26 04:16:07;;;;;;;15.33;4.40;;;;;;;2.44;100.00;101952.63;5042829;28;20040;-65
2024/01/26 04:18:33;;;;;;;17.60;4.53;;;;;;;2.46;100.00;101943.25;5047894;28;20047;-68
2024/01/26 04:20:59;;;;;;;20.02;5.20;;;;;;;2.46;100.00;101943.25;5047086;28;20037;-64
2024/01/26 04:23:24;;;;;;;12.90;4.50;;;;;;;2.47;100.00;101945.06;5044662;28;20413;-67
2024/01/26 04:25:50;;;;;;;19.93;5.40;;;;;;;2.47;100.00;101951.19;5040620;28;20162;-70
2024/01/26 04:28:15;;;;;;;20.13;4.73;;;;;;;2.47;100.00;101946.00;5048024;28;20048;-63
2024/01/26 04:30:43;;;;;;;17.47;5.60;;;;;;;2.49;100.00;101956.56;5048199;28;20047;-63
2024/01/26 04:33:08;;;;;;;14.77;4.65;;;;;;;2.50;100.00;101948.91;5044318;28;20086;-67
2024/01/26 04:35:34;;;;;;;25.05;4.85;;;;;;;2.50;100.00;101961.03;5036901;28;20473;-67
2024/01/26 04:38:00;;;;;;;25.93;7.13;;;;;;;2.51;100.00;101958.56;5048223;28;20561;-63
2024/01/26 04:40:25;;;;;;;22.50;5.30;;;;;;;2.53;100.00;101961.28;5048215;28;20489;-69
2024/01/26 04:42:50;;;;;;;22.07;5.63;;;;;;;2.53;100.00;101954.38;5049950;28;20116;-66
2024/01/26 04:45:16;;;;;;;23.67;5.93;;;;;;;2.55;100.00;101954.53;5048091;28;20349;-64
2024/01/26 04:47:42;;;;;;;26.77;4.90;;;;;;;2.54;100.00;101952.69;5048147;28;20044;-72
2024/01/26 04:50:07;;;;;;;19.58;5.30;;;;;;;2.56;100.00;101952.06;5031367;28;20129;-70
2024/01/26 04:52:35;;;;;;;18.57;4.67;;;;;;;2.58;100.00;101946.97;5045871;28;20484;-66
2024/01/26 04:55:01;;;;;;;30.42;6.53;;;;;;;2.59;100.00;101946.22;5048117;28;20049;-64
2024/01/26 04:57:26;;;;;;;21.57;5.70;;;;;;;2.59;100.00;101941.00;5048143;28;20040;-67
2024/01/26 05:02:14;;;;;;;23.95;4.93;;;;;;;2.65;100.00;101938.03;5072284;28;21012;-71
2024/01/26 05:04:39;;;;;;;19.33;5.17;;;;;;;2.67;100.00;101934.75;5079237;28;20029;-68
2024/01/26 05:07:05;;;;;;;15.30;4.45;;;;;;;2.68;100.00;101934.00;5069149;28;20039;-65
2024/01/26 05:09:30;;;;;;;19.30;4.77;;;;;;;2.73;100.00;101932.72;5075396;28;20044;-69
2024/01/26 05:11:55;;;;;;;15.07;5.27;;;;;;;2.75;100.00;101912.91;5058760;28;20518;-66
2024/01/26 05:14:22;;;;;;;17.47;5.40;;;;;;;2.80;100.00;101922.09;5068151;28;20052;-66
2024/01/26 05:16:47;;;;;;;14.93;5.20;;;;;;;2.83;100.00;101924.94;5080193;28;20043;-70
2024/01/26 05:19:13;;;;;;;20.33;4.90;;;;;;;2.86;100.00;101913.91;5080083;28;20048;-69
2024/01/26 05:21:40;;;;;;;16.30;5.03;;;;;;;2.90;100.00;101914.31;5080229;28;20032;-69
2024/01/26 05:24:06;;;;;;;15.70;4.85;;;;;;;2.92;100.00;101907.50;5080139;28;20548;-66
2024/01/26 05:26:31;;;;;;;19.67;4.57;;;;;;;2.95;100.00;101915.63;5060972;28;20128;-68
2024/01/26 05:28:56;;;;;;;23.20;6.03;;;;;;;2.97;100.00;101910.53;5073048;28;20044;-66
2024/01/26 05:31:22;;;;;;;19.33;4.93;;;;;;;2.93;100.00;101904.13;5080260;28;20032;-64
2024/01/26 05:33:47;;;;;;;18.57;5.77;;;;;;;2.90;100.00;101903.88;5076058;28;20485;-69
2024/01/26 05:36:13;;;;;;;15.55;5.25;;;;;;;2.87;100.00;101903.56;5079941;28;20119;-65
2024/01/26 05:38:38;;;;;;;19.50;5.07;;;;;;;2.82;100.00;101894.41;5079881;28;20046;-63
2024/01/26 05:41:03;;;;;;;25.87;5.10;;;;;;;2.78;100.00;101881.88;5071871;28;20082;-67
2024/01/26 05:43:29;;;;;;;24.27;4.87;;;;;;;2.74;100.00;101885.00;5080789;28;20407;-69
2024/01/26 05:45:54;;;;;;;15.50;4.20;;;;;;;2.70;100.00;101881.97;5074317;28;20040;-66
2024/01/26 05:48:20;;;;;;;19.70;5.10;;;;;;;2.69;100.00;101878.44;5077691;28;20781;-65
2024/01/26 05:50:45;;;;;;;13.90;3.90;;;;;;;2.64;100.00;101874.50;5071491;28;20127;-67
2024/01/26 05:53:11;;;;;;;16.20;4.10;;;;;;;2.62;100.00;101873.44;5080468;28;20579;-64
2024/01/26 05:58:07;;;;;;;20.63;4.80;;;;;;;2.64;100.00;101871.91;5101172;27;20420;-67
2024/01/26 06:00:33;;;;;;;16.73;4.43;;;;;;;2.64;100.00;101861.47;5101673;28;20035;-66
2024/01/26 06:02:58;;;;;;;17.45;5.32;;;;;;;2.63;100.00;101858.72;5104279;28;20114;-64
2024/01/26 06:05:23;;;;;;;13.77;4.20;;;;;;;2.65;100.00;101857.16;5101632;28;20530;-66
2024/01/26 06:07:49;;;;;;;23.37;5.23;;;;;;;2.66;100.00;101848.56;5101430;28;20160;-65
2024/01/26 06:10:15;;;;;;;19.67;5.45;;;;;;;2.69;100.00;101835.78;5090764;28;20047;-67
2024/01/26 06:12:41;;;;;;;26.03;6.13;;;;;;;2.71;100.00;101831.66;5100818;28;20079;-64
2024/01/26 06:15:09;;;;;;;22.67;5.13;;;;;;;2.74;100.00;101830.22;5092716;28;20052;-70
2024/01/26 06:17:35;;;;;;;14.77;4.63;;;;;;;2.74;100.00;101832.81;5082041;28;20047;-65
2024/01/26 06:20:03;;;;;;;20.23;4.97;;;;;;;2.72;100.00;101828.22;5095704;28;20032;-63
2024/01/26 06:22:28;;;;;;;18.13;4.53;;;;;;;2.70;100.00;101832.41;5100345;28;20202;-67
2024/01/26 06:24:54;;;;;;;20.27;5.00;;;;;;;2.68;100.00;101834.88;5102238;28;20199;-64
2024/01/26 06:29:31;;;;;;;27.63;5.28;;;;;;;2.63;100.00;101820.50;5101218;27;20363;-67
2024/01/26 06:32:00;;;;;;;17.43;4.53;;;;;;;2.60;100.00;101808.13;5089514;28;20689;-66
2024/01/26 06:34:26;;;;;;;21.47;5.63;;;;;;;2.60;100.00;101815.03;5084320;28;20295;-69
2024/01/26 06:36:51;;;;;;;20.02;5.35;;;;;;;2.58;100.00;101819.19;5100720;28;20035;-65
2024/01/26 06:39:16;;;;;;;20.83;4.30;;;;;;;2.59;100.00;101805.38;5091903;28;20079;-69
2024/01/26 06:41:42;;;;;;;25.43;5.50;;;;;;;2.59;100.00;101805.38;5075954;28;20526;-64
2024/01/26 06:44:07;;;;;;;23.88;5.07;;;;;;;2.58;100.00;101794.03;5091825;28;20109;-67
2024/01/26 06:46:33;;;;;;;25.33;5.13;;;;;;;2.57;100.00;101791.25;5086644;28;20403;-63
2024/01/26 06:48:58;;;;;;;18.87;4.40;;;;;;;2.55;100.00;101785.03;5080253;28;20500;-67
2024/01/26 06:51:24;;;;;;;20.90;5.17;;;;;;;2.55;100.00;101787.63;5078637;28;20127;-67
2024/01/26 06:53:49;;;;;;;30.07;5.23;;;;;;;2.55;100.00;101790.25;5080066;28;20632;-65
2024/01/26 06:56:15;;;;;;;23.47;5.83;;;;;;;2.57;100.00;101793.88;5080345;28;20043;-71
2024/01/26 06:58:40;;;;;;;13.63;4.80;;;;;;;2.58;100.00;101787.88;5099086;28;20039;-67
2024/01/26 07:01:06;;;;;;;14.53;5.13;;;;;;;2.58;100.00;101785.28;5100064;28;20395;-67
2024/01/26 07:03:31;;;;;;;19.48;4.60;;;;;;;2.57;100.00;101791.25;5092276;28;20045;-64
2024/01/26 07:05:56;;;;;;;26.07;5.87;;;;;;;2.58;100.00;101798.31;5087094;28;20044;-67
2024/01/26 07:08:22;;;;;;;19.07;5.30;;;;;;;2.60;100.00;101797.69;5090619;28;20106;-66
2024/01/26 07:10:47;;;;;;;19.53;5.10;;;;;;;2.61;100.00;101781.25;5103215;28;20048;-70
2024/01/26 07:13:13;;;;;;;17.47;4.83;;;;;;;2.67;100.00;101783.47;5101874;28;20028;-66
2024/01/26 07:15:38;;;;;;;24.33;5.67;;;;;;;2.73;100.00;101771.00;5102227;28;20282;-66
2024/01/26 07:18:04;;;;;;;20.73;5.40;;;;;;;2.83;100.00;101775.31;5096138;28;20111;-72
2024/01/26 07:20:29;;;;;;;20.52;4.53;;;;;;;2.88;100.00;101780.16;5080949;28;20037;-69
2024/01/26 07:22:55;;;;;;;26.83;6.73;;;;;;;2.93;100.00;101775.34;5087911;28;20046;-67
2024/01/26 07:25:21;;;;;;;25.58;6.55;;;;;;;3.03;100.00;101786.72;5101508;28;20441;-65
2024/01/26 07:27:47;;;;;;;20.90;4.80;;;;;;;3.10;100.00;101776.81;5086957;28;20123;-66
2024/01/26 07:30:13;;;;;;;15.98;5.03;;;;;;;3.17;100.00;101776.53;5090042;28;20051;-64
2024/01/26 07:32:39;;;;;;;14.70;5.68;;;;;;;3.25;100.00;101773.84;5101848;28;20395;-66
2024/01/26 07:35:05;;;;;;;15.87;6.43;;;;;;;3.30;100.00;101767.31;5088375;28;20036;-68
2024/01/26 07:37:30;;;;;;;21.88;6.13;;;;;;;3.37;100.00;101758.28;5101209;28;20384;-67
2024/01/26 07:39:56;;;;;;;19.30;5.23;;;;;;;3.43;100.00;101749.28;5092697;28;20115;-63
2024/01/26 07:42:21;;;;;;;18.13;5.97;;;;;;;3.50;100.00;101755.03;5088141;28;20044;-67
2024/01/26 07:44:47;;;;;;;16.60;4.45;;;;;;;3.56;100.00;101746.00;5087923;28;20026;-67
2024/01/26 07:47:12;;;;;;;20.80;5.07;;;;;;;3.66;100.00;101738.16;5087272;28;20115;-63
2024/01/26 07:49:37;;;;;;;23.10;5.77;;;;;;;3.73;100.00;101744.81;5083446;28;20036;-68
2024/01/26 07:52:03;;;;;;;17.03;4.83;;;;;;;3.82;100.00;101748.19;5074740;28;20043;-66
2024/01/26 07:54:28;;;;;;;19.35;4.57;;;;;;;3.90;100.00;101740.19;5079105;28;20039;-67
2024/01/26 07:56:54;;;;;;;18.17;4.80;;;;;;;3.98;100.00;101737.31;5086068;28;20466;-65
2024/01/26 07:59:19;;;;;;;21.93;6.20;;;;;;;4.03;100.00;101725.53;5088292;28;20030;-65
2024/01/26 08:01:45;;;;;;;19.30;5.00;;;;;;;4.11;100.00;101714.91;5072388;28;20761;-66
2024/01/26 08:04:10;;;;;;;21.30;5.68;;;;;;;4.18;100.00;101709.41;5065026;28;20089;-65
2024/01/26 08:06:36;;;;;;;27.97;5.33;;;;;;;4.25;100.00;101697.72;5084932;28;20058;-66
2024/01/26 08:09:01;;;;;;;16.20;4.73;;;;;;;4.31;100.00;101690.38;5085283;28;20032;-69
2024/01/26 08:11:26;;;;;;;16.60;4.47;;;;;;;4.38;100.00;101691.81;5083901;28;20032;-68
2024/01/26 08:13:52;;;;;;;14.80;4.67;;;;;;;4.45;100.00;101691.47;5065325;28;20571;-65
2024/01/26 08:16:17;;;;;;;26.10;4.70;;;;;;;4.52;100.00;101683.34;5081879;28;20551;-67
2024/01/26 08:18:43;;;;;;;16.77;4.60;;;;;;;4.56;100.00;101678.47;5085205;28;20055;-67
2024/01/26 08:21:10;;;;;;;22.10;5.13;;;;;;;4.62;100.00;101673.75;5085065;28;20435;-64
2024/01/26 08:23:36;;;;;;;16.73;5.43;;;;;;;4.67;100.00;101668.88;5066864;28;20382;-66
2024/01/26 08:26:02;;;;;;;18.95;5.15;;;;;;;4.72;100.00;101665.81;5079368;28;20041;-67
2024/01/26 08:28:28;;;;;;;24.10;5.28;;;;;;;4.82;100.00;101663.91;5073817;28;20032;-64
2024/01/26 08:30:53;;;;;;;20.30;5.53;;;;;;;4.87;100.00;101665.19;5084966;28;20142;-65
2024/01/26 08:33:19;;;;;;;21.73;6.00;;;;;;;4.91;100.00;101656.78;5080017;28;20127;-67
2024/01/26 08:35:44;;;;;;;25.25;5.50;;;;;;;4.93;100.00;101653.50;5076813;28;20051;-67
2024/01/26 08:38:10;;;;;;;14.47;4.40;;;;;;;4.99;100.00;101651.34;5086155;28;20452;-63
2024/01/26 08:40:35;;;;;;;14.63;4.47;;;;;;;5.05;100.00;101640.44;5084741;28;20039;-65
2024/01/26 08:43:01;;;;;;;25.63;5.07;;;;;;;5.08;100.00;101638.06;5083783;28;20414;-65
2024/01/26 08:45:26;;;;;;;22.27;6.37;;;;;;;5.15;100.00;101632.47;5084552;28;20166;-64
2024/01/26 08:47:51;;;;;;;17.00;4.47;;;;;;;5.23;100.00;101631.34;5084697;28;20024;-65
2024/01/26 08:50:17;;;;;;;19.77;3.97;;;;;;;5.34;100.00;101638.31;5075538;28;20119;-65
2024/01/26 08:52:42;;;;;;;22.60;3.90;;;;;;;5.42;100.00;101631.06;5084019;28;20036;-64
2024/01/26 08:55:08;;;;;;;13.17;3.73;;;;;;;5.46;100.00;101634.03;5084710;28;20039;-65
2024/01/26 08:57:33;;;;;;;18.03;4.67;;;;;;;5.49;100.00;101639.47;5084738;28;20063;-64
2024/01/26 09:00:00;;;;;;;19.90;4.90;;;;;;;5.50;99.90;101625.59;5084630;28;20119;-67
2024/01/26 09:02:25;;;;;;;12.20;4.05;;;;;;;5.52;99.95;101625.72;5075937;28;20028;-64
2024/01/26 09:04:53;;;;;;;16.15;4.25;;;;;;;5.58;99.88;101618.28;5084592;28;20043;-66
2024/01/26 09:07:21;;;;;;;19.15;4.50;;;;;;;5.61;99.42;101614.19;5084065;28;20508;-68
2024/01/26 09:09:46;;;;;;;18.43;4.37;;;;;;;5.65;99.19;101596.97;5082800;28;20040;-67
2024/01/26 09:12:12;;;;;;;19.92;4.60;;;;;;;5.69;99.07;101591.16;5076066;28;20485;-65
2024/01/26 09:14:37;;;;;;;18.43;4.97;;;;;;;5.73;99.01;101581.81;5084516;28;20040;-63
2024/01/26 09:17:03;;;;;;;18.93;4.13;;;;;;;5.83;98.75;101576.44;5084360;28;20713;-67
2024/01/26 09:19:28;;;;;;;14.13;4.27;;;;;;;5.86;98.68;101561.88;5075407;28;20056;-64
2024/01/26 09:21:54;;;;;;;23.88;5.47;;;;;;;5.89;98.53;101550.72;5083522;28;20044;-67
2024/01/26 09:24:19;;;;;;;12.60;3.57;;;;;;;6.03;98.19;101543.03;5084179;28;20678;-64
2024/01/26 09:26:44;;;;;;;11.93;3.40;;;;;;;6.16;98.09;101536.97;5082208;28;20039;-66
2024/01/26 09:29:10;;;;;;;17.63;5.23;;;;;;;6.29;97.42;101534.41;5083799;28;20040;-65
2024/01/26 09:31:35;;;;;;;17.17;4.83;;;;;;;6.36;97.21;101525.25;5083742;28;20126;-64
2024/01/26 09:34:01;;;;;;;17.45;4.00;;;;;;;6.50;97.35;101541.16;5071482;28;20047;-63
2024/01/26 09:36:26;;;;;;;17.13;4.23;;;;;;;6.59;96.83;101547.81;5081352;28;20040;-66
2024/01/26 09:38:51;;;;;;;19.33;4.40;;;;;;;6.64;97.03;101526.34;5084048;28;20510;-64
2024/01/26 09:41:17;;;;;;;17.23;4.27;;;;;;;6.69;96.87;101519.69;5083540;28;20027;-66
2024/01/26 09:43:43;;;;;;;28.70;5.43;;;;;;;6.74;96.77;101504.25;5082326;28;20028;-66
2024/01/26 09:46:09;;;;;;;15.45;4.35;;;;;;;6.87;96.88;101499.03;5083394;28;20089;-64
2024/01/26 09:48:34;;;;;;;18.70;4.23;;;;;;;7.03;96.51;101506.22;5083716;28;20067;-64
2024/01/26 09:51:01;;;;;;;18.73;3.23;;;;;;;7.11;96.30;101505.91;5074482;28;20067;-65
2024/01/26 09:53:29;;;;;;;12.15;3.45;;;;;;;7.18;96.09;101515.13;5083373;28;20047;-65
2024/01/26 09:55:54;;;;;;;16.98;4.20;;;;;;;7.20;96.19;101500.38;5083459;28;20071;-62
2024/01/26 09:58:20;;;;;;;20.33;3.90;;;;;;;7.23;96.14;101493.59;5082020;28;20067;-67
2024/01/26 10:00:46;;;;;;;15.18;4.43;;;;;;;7.29;96.40;101479.97;5078284;28;20071;-65
2024/01/26 10:03:14;;;;;;;17.23;3.57;;;;;;;7.38;96.43;101468.34;5063105;28;20518;-63
2024/01/26 10:05:40;;;;;;;20.08;4.47;;;;;;;7.42;96.41;101461.53;5083537;28;20095;-66
2024/01/26 10:08:09;;;;;;;15.70;4.67;;;;;;;7.46;96.25;101467.91;5084251;28;20065;-65
2024/01/26 10:10:35;;;;;;;13.50;3.65;;;;;;;7.45;96.52;101458.22;5064431;28;20101;-64
2024/01/26 10:13:00;;;;;;;15.30;3.33;;;;;;;7.51;96.85;101437.56;5065608;28;20494;-65
2024/01/26 10:15:26;;;;;;;14.73;4.30;;;;;;;7.64;96.95;101421.78;5084245;28;20434;-64
2024/01/26 10:17:54;;;;;;;13.10;3.67;;;;;;;7.81;96.46;101426.34;5082901;28;20188;-67
2024/01/26 10:20:20;;;;;;;14.65;3.40;;;;;;;7.91;96.28;101420.88;5084303;28;20027;-64
2024/01/26 10:22:47;;;;;;;12.57;3.50;;;;;;;7.96;96.06;101416.78;5067823;28;20070;-64
2024/01/26 10:25:13;;;;;;;13.82;3.38;;;;;;;7.96;96.26;101419.44;5084327;28;20051;-64
2024/01/26 10:27:40;;;;;;;19.30;4.18;;;;;;;8.00;96.38;101433.66;5083637;28;20078;-69
2024/01/26 10:30:06;;;;;;;16.95;3.67;;;;;;;7.99;96.10;101421.34;5084813;28;20447;-63
2024/01/26 10:32:33;;;;;;;14.45;3.33;;;;;;;7.95;96.86;101412.34;5085826;28;20036;-66
2024/01/26 10:35:01;;;;;;;12.43;3.23;;;;;;;7.96;96.91;101405.34;5071668;28;20100;-64
2024/01/26 10:37:28;;;;;;;20.63;3.85;;;;;;;7.99;97.19;101395.94;5085674;28;20098;-63
2024/01/26 10:39:55;;;;;;;12.82;3.55;;;;;;;8.03;97.24;101389.16;5085934;28;20082;-64
2024/01/26 10:42:20;;;;;;;12.65;3.78;;;;;;;8.11;97.59;101383.53;5085726;28;20160;-64
2024/01/26 10:44:50;;;;;;;10.33;2.90;;;;;;;8.20;97.23;101381.44;5087342;28;20510;-65
2024/01/26 10:47:19;;;;;;;13.73;3.17;;;;;;;8.33;97.02;101372.63;5085406;28;20416;-63
2024/01/26 10:49:49;;;;;;;15.50;3.58;;;;;;;8.44;97.08;101371.50;5081016;28;20044;-65
2024/01/26 10:52:18;;;;;;;11.97;3.13;;;;;;;8.54;96.95;101365.06;5082689;28;20119;-64
2024/01/26 10:54:49;;;;;;;10.45;2.75;;;;;;;8.64;96.64;101348.97;5084687;28;20567;-70
2024/01/26 10:57:15;;;;;;;15.52;3.38;;;;;;;8.77;96.43;101348.91;5085897;28;20496;-64
2024/01/26 10:59:43;;;;;;;14.73;4.00;;;;;;;8.92;95.78;101328.69;5086813;28;20032;-65
2024/01/26 11:02:13;;;;;;;16.67;4.32;;;;;;;9.22;97.62;101300.53;5076360;28;20035;-66
2024/01/26 11:04:44;;;;;;;14.17;4.07;;;;;;;9.61;97.93;101296.50;5086490;28;20027;-65
2024/01/26 11:07:10;;;;;;;14.55;4.30;;;;;;;9.91;96.57;101282.28;5086204;28;20528;-64
2024/01/26 11:09:41;;;;;;;17.13;3.78;;;;;;;10.34;96.40;101272.19;5084226;28;20040;-65
2024/01/26 11:12:19;;;;;;;15.73;4.07;;;;;;;10.36;93.77;101272.28;5085148;28;20036;-62
2024/01/26 11:14:44;;;;;;;10.87;3.73;;;;;;;9.97;92.82;101260.56;5067453;28;20036;-64
2024/01/26 11:17:10;;;;;;;7.90;2.60;;;;;;;9.78;93.62;101258.69;5072752;28;20045;-65
2024/01/26 11:19:37;;;;;;;11.93;4.00;;;;;;;9.61;93.56;101254.28;5072340;28;21840;-64
2024/01/26 11:22:05;;;;;;;12.48;3.00;;;;;;;9.56;94.02;101257.50;5075550;28;20036;-67
2024/01/26 11:24:32;;;;;;;11.95;3.00;;;;;;;9.43;93.94;101245.38;5071008;28;20415;-63